Bents Old Fort, Colorado
Current Conditions -  °F | °C
As of 10:53 PM on Thursday 30 Oct 2014 (Local Time) from KLHX Reporting Station
Clear Clear  
Wind Chill: 44°   Ceiling: Unl
Heat Index: 44°   Visibility: 10mi
Dew Point: 26°   Wind: 0mph
Humidity: 49%   Direction: NA
Pressure: 30.4"   Gusts: NA
Location:  37.8368°N, 103.544°W
Report Text: KLHX 310453Z AUTO 00000KT 10SM CLR 07/M03 A3040 RMK AO2 SLP274 T00671033
Loading
Personal Weather Stations






























Interactive Weather Map
Tropical Storm Tracking
New forecast layout! Learn more

10-Day Weather Forecast

Advertisements
Track Severe Weather on mobile